This is the latest recevied weather packets stored in our database for station/object K0APR. If no packets are shown the sender has not sent any weather packets the latest 10 day(s).
| Time | Temp. | Humidity | Pressure | Rain* | Wind** | Luminosity | Snow |
|---|---|---|---|---|---|---|---|
| 1788372578 | 26.67° C | 72% | 1012.3 hPa | 0 mm | - | 570 W/m² | - |
| 1788372273 | 26.11° C | 74% | 1012.3 hPa | 0 mm | - | 583 W/m² | - |
| 1788371969 | 26.11° C | 71% | 1012.3 hPa | 0 mm | - | 563 W/m² | - |
| 1788371664 | 26.11° C | 74% | 1012.7 hPa | 0 mm | - | 544 W/m² | - |
| 1788371360 | 26.11° C | 74% | 1012.3 hPa | 0 mm | - | 557 W/m² | - |
| 1788371056 | 25° C | 77% | 1012.3 hPa | 0 mm | - | 554 W/m² | - |
| 1788370752 | 25° C | 78% | 1012.7 hPa | 0 mm | - | 567 W/m² | - |
| 1788370451 | 25° C | 77% | 1012.3 hPa | 0 mm | - | 568 W/m² | - |
| 1788370146 | 25° C | 78% | 1013 hPa | 0 mm | - | 568 W/m² | - |
| 1788369846 | 24.44° C | 77% | 1013 hPa | 0 mm | - | 590 W/m² | - |
| 1788369541 | 23.89° C | 80% | 1013 hPa | 0 mm | - | 595 W/m² | - |
| 1788369236 | 24.44° C | 80% | 1013 hPa | 0 mm | - | 605 W/m² | - |
| 1788368933 | 24.44° C | 79% | 1012.7 hPa | 0 mm | - | 618 W/m² | - |
| 1788368632 | 23.89° C | 81% | 1013 hPa | 0 mm | - | 609 W/m² | - |
| 1788368328 | 24.44° C | 78% | 1013 hPa | 0 mm | - | 619 W/m² | - |
| 1788368027 | 23.89° C | 80% | 1013 hPa | 0 mm | - | 630 W/m² | - |
| 1788367722 | 23.89° C | 80% | 1013 hPa | 0 mm | - | 623 W/m² | - |
| 1788367417 | 23.89° C | 81% | 1013 hPa | 0 mm | - | 655 W/m² | - |
| 1788367116 | 23.89° C | 79% | 1013 hPa | 0 mm | - | 642 W/m² | - |
| 1788366811 | 23.33° C | 81% | 1013 hPa | 0 mm | - | 613 W/m² | - |
| 1788366509 | 23.89° C | 81% | 1013 hPa | 0 mm | - | 647 W/m² | - |
| 1788366204 | 24.44° C | 80% | 1013 hPa | 0 mm | - | 590 W/m² | - |
| 1788365899 | 23.89° C | 81% | 1013 hPa | 0 mm | - | 600 W/m² | - |
| 1788365595 | 23.89° C | 80% | 1013.3 hPa | 0 mm | - | 197 W/m² | - |
| 1788365291 | 25° C | 76% | 1013 hPa | 0 mm | - | 547 W/m² | - |
* Rain latest hour (hover to see other rain measurements)
** Current wind speed in m/s (hover to see current wind gust speed)